createdAt,value
2023-01-20T00:02:16.673Z,6.25
2023-01-20T00:04:43.401Z,6.00
2023-01-20T00:07:10.202Z,7.75
2023-01-20T00:09:37.080Z,10.75
2023-01-20T00:12:04.703Z,2.25
2023-01-20T00:14:32.738Z,7.00
2023-01-20T00:16:59.367Z,6.00
2023-01-20T00:19:26.263Z,6.50
2023-01-20T00:21:53.158Z,5.00
2023-01-20T00:24:19.882Z,5.00
2023-01-20T00:26:46.600Z,2.25
2023-01-20T00:29:13.326Z,7.75
2023-01-20T00:31:41.588Z,5.00
2023-01-20T00:34:10.082Z,3.50
2023-01-20T00:36:36.977Z,6.75
2023-01-20T00:39:04.845Z,7.00
2023-01-20T00:41:31.693Z,12.00
2023-01-20T00:43:58.511Z,10.50
2023-01-20T00:46:25.116Z,6.75
2023-01-20T00:48:53.296Z,11.25
2023-01-20T00:51:20.225Z,6.75
2023-01-20T00:53:46.913Z,5.75
2023-01-20T00:56:13.623Z,6.50
2023-01-20T00:58:42.688Z,5.00
2023-01-20T01:01:09.430Z,8.00
2023-01-20T01:03:36.253Z,7.25
2023-01-20T01:06:09.809Z,9.00
2023-01-20T01:08:36.883Z,9.25
2023-01-20T01:11:04.740Z,8.25
2023-01-20T01:13:31.717Z,7.00
2023-01-20T01:15:58.791Z,5.25
2023-01-20T01:18:25.612Z,4.00
2023-01-20T01:20:52.293Z,10.75
2023-01-20T01:23:20.484Z,7.25
2023-01-20T01:25:47.157Z,5.75
2023-01-20T01:28:13.858Z,5.25
2023-01-20T01:30:40.591Z,5.50
2023-01-20T01:33:07.249Z,7.75
2023-01-20T01:35:33.958Z,6.00
2023-01-20T01:38:00.624Z,7.75
2023-01-20T01:40:28.663Z,14.75
2023-01-20T01:42:55.340Z,5.75
2023-01-20T01:45:25.735Z,5.75
2023-01-20T01:47:59.341Z,7.00
2023-01-20T01:50:31.073Z,8.75
2023-01-20T01:52:57.898Z,2.00
2023-01-20T01:55:30.871Z,5.75
2023-01-20T01:57:59.604Z,5.00
2023-01-20T02:00:26.842Z,5.25
2023-01-20T02:02:55.217Z,6.00
2023-01-20T02:05:24.155Z,5.75
2023-01-20T02:07:52.163Z,3.50
2023-01-20T02:10:19.009Z,15.00
2023-01-20T02:12:49.486Z,10.75
2023-01-20T02:15:17.016Z,12.50
2023-01-20T02:17:57.631Z,4.50
2023-01-20T02:20:43.568Z,14.00
2023-01-20T02:23:26.235Z,2.75
2023-01-20T02:26:14.214Z,5.75
2023-01-20T02:29:11.875Z,9.75
2023-01-20T02:32:12.599Z,7.25
2023-01-20T02:34:45.975Z,9.50
2023-01-20T02:37:16.550Z,8.00
2023-01-20T02:39:54.980Z,6.75
2023-01-20T02:42:25.575Z,3.00
2023-01-20T02:44:57.670Z,3.50
2023-01-20T02:47:32.200Z,6.75
2023-01-20T02:50:05.865Z,3.00
2023-01-20T02:52:36.304Z,5.75
2023-01-20T02:55:08.284Z,8.50
2023-01-20T02:57:41.951Z,5.50
2023-01-20T03:00:15.738Z,10.00
2023-01-20T03:02:48.109Z,6.00
2023-01-20T03:05:20.277Z,8.50
2023-01-20T03:07:50.499Z,8.50
2023-01-20T03:10:21.568Z,6.50
2023-01-20T03:12:52.094Z,11.00
2023-01-20T03:15:23.694Z,9.00
2023-01-20T03:17:52.351Z,18.75
2023-01-20T03:20:19.037Z,16.75
2023-01-20T03:22:45.940Z,9.50
2023-01-20T03:25:14.505Z,6.50
2023-01-20T03:27:41.804Z,10.50
2023-01-20T03:30:13.676Z,5.00
2023-01-20T03:32:43.507Z,23.75
2023-01-20T03:35:13.285Z,12.25
2023-01-20T03:37:40.130Z,6.00
2023-01-20T03:40:08.494Z,8.00
2023-01-20T03:42:43.938Z,10.50
2023-01-20T03:45:16.961Z,18.50
2023-01-20T03:47:51.668Z,11.25
2023-01-20T03:50:34.386Z,4.25
2023-01-20T03:53:10.448Z,3.00
2023-01-20T03:55:43.227Z,10.25
2023-01-20T03:58:13.997Z,20.25
2023-01-20T04:00:45.720Z,5.25
2023-01-20T04:03:17.894Z,10.00
2023-01-20T04:05:48.493Z,6.75
2023-01-20T04:08:17.609Z,5.00
2023-01-20T04:10:48.414Z,8.75
2023-01-20T04:13:15.697Z,9.00
2023-01-20T04:15:44.176Z,6.00
2023-01-20T04:18:13.275Z,5.00
2023-01-20T04:20:40.495Z,12.00
2023-01-20T04:23:13.658Z,12.00
2023-01-20T04:25:40.341Z,2.00
2023-01-20T04:28:06.989Z,4.00
2023-01-20T04:30:33.766Z,6.25
2023-01-20T04:33:00.471Z,6.25
2023-01-20T04:35:27.350Z,1.50
2023-01-20T04:37:54.038Z,7.25
2023-01-20T04:40:22.059Z,10.00
2023-01-20T04:42:49.356Z,4.75
2023-01-20T04:45:17.469Z,6.00
2023-01-20T04:47:44.811Z,6.50
2023-01-20T04:50:12.962Z,8.25
2023-01-20T04:52:39.735Z,6.75
2023-01-20T04:55:07.290Z,9.00
2023-01-20T04:57:35.348Z,5.00
2023-01-20T05:00:02.074Z,12.25
2023-01-20T05:02:28.796Z,5.50
2023-01-20T05:04:55.516Z,7.50
2023-01-20T05:07:22.308Z,2.50
2023-01-20T05:09:48.960Z,5.00
2023-01-20T05:12:15.599Z,6.50
2023-01-20T05:14:43.687Z,3.75
2023-01-20T05:17:10.469Z,6.00
2023-01-20T05:19:37.098Z,8.00
2023-01-20T05:22:03.733Z,5.00
2023-01-20T05:24:30.411Z,3.75
2023-01-20T05:27:00.292Z,7.00
2023-01-20T05:29:27.182Z,4.50
2023-01-20T05:31:55.636Z,4.25
2023-01-20T05:34:22.571Z,6.00
2023-01-20T05:36:51.610Z,6.00
2023-01-20T05:39:18.730Z,6.25
2023-01-20T05:41:45.500Z,14.00
2023-01-20T05:44:12.232Z,7.00
2023-01-20T05:46:39.032Z,9.00
2023-01-20T05:49:07.125Z,7.00
2023-01-20T05:51:33.826Z,6.50
2023-01-20T05:54:00.541Z,5.25
2023-01-20T05:56:27.249Z,6.00
2023-01-20T05:58:54.666Z,10.00
2023-01-20T06:01:21.580Z,7.50
2023-01-20T06:03:48.272Z,11.75
2023-01-20T06:06:16.657Z,23.25
2023-01-20T06:08:43.762Z,10.75
2023-01-20T06:11:10.673Z,14.00
2023-01-20T06:13:37.355Z,16.25
2023-01-20T06:16:07.164Z,9.75
2023-01-20T06:18:34.059Z,15.75
2023-01-20T06:21:00.822Z,19.00
2023-01-20T06:23:28.999Z,26.50
2023-01-20T06:26:00.514Z,9.75
2023-01-20T06:28:27.457Z,13.75
2023-01-20T06:30:59.916Z,7.75
2023-01-20T06:33:26.974Z,11.25
2023-01-20T06:35:54.127Z,13.50
2023-01-20T06:38:20.781Z,13.75
2023-01-20T06:40:48.852Z,11.50
2023-01-20T06:43:15.547Z,16.50
2023-01-20T06:45:42.464Z,21.00
2023-01-20T06:48:09.433Z,12.50
2023-01-20T06:50:36.147Z,16.00
2023-01-20T06:53:02.848Z,15.50
2023-01-20T06:55:29.595Z,23.25
2023-01-20T06:57:57.637Z,36.50
2023-01-20T07:00:24.775Z,24.50
2023-01-20T07:02:51.527Z,30.75
2023-01-20T07:05:18.189Z,20.25
2023-01-20T07:07:44.926Z,25.00
2023-01-20T07:10:12.467Z,23.50
2023-01-20T07:12:39.141Z,18.25
2023-01-20T07:15:08.322Z,27.75
2023-01-20T07:17:34.965Z,22.00
2023-01-20T07:20:01.625Z,17.50
2023-01-20T07:22:28.246Z,8.75
2023-01-20T07:24:54.930Z,10.75
2023-01-20T07:27:21.720Z,8.00
2023-01-20T07:29:48.364Z,6.50
2023-01-20T07:32:16.552Z,9.00
2023-01-20T07:34:43.197Z,11.75
2023-01-20T07:37:09.824Z,6.50
2023-01-20T07:39:36.724Z,15.75
2023-01-20T07:42:03.612Z,12.50
2023-01-20T07:44:30.318Z,11.00
2023-01-20T07:46:57.585Z,14.75
2023-01-20T07:49:25.662Z,9.00
2023-01-20T07:51:52.338Z,11.75
2023-01-20T07:54:18.988Z,16.25
2023-01-20T07:56:45.653Z,10.75
2023-01-20T07:59:12.313Z,11.75
2023-01-20T08:01:39.113Z,12.00
2023-01-20T08:04:05.849Z,7.25
2023-01-20T08:06:33.931Z,24.00
2023-01-20T08:09:01.702Z,17.00
2023-01-20T08:11:28.601Z,20.00
2023-01-20T08:13:55.402Z,30.25
2023-01-20T08:16:22.253Z,35.25
2023-01-20T08:18:49.029Z,52.33
2023-01-20T08:21:19.729Z,43.75
2023-01-20T08:23:47.934Z,56.33
2023-01-20T08:26:15.040Z,48.25
2023-01-20T08:28:41.972Z,49.33
2023-01-20T08:31:10.929Z,56.67
2023-01-20T08:33:38.407Z,46.00
2023-01-20T08:36:07.447Z,44.00
2023-01-20T08:38:34.887Z,14.50
2023-01-20T08:41:06.767Z,42.75
2023-01-20T08:43:33.522Z,34.75
2023-01-20T08:46:00.778Z,44.75
2023-01-20T08:48:27.452Z,55.33
2023-01-20T08:50:54.422Z,55.67
2023-01-20T08:53:21.479Z,51.00
2023-01-20T08:55:55.561Z,26.50
2023-01-20T08:58:25.388Z,21.50
2023-01-20T09:00:52.356Z,18.25
2023-01-20T09:03:19.361Z,8.75
2023-01-20T09:05:46.532Z,12.00
2023-01-20T09:08:13.885Z,15.75
2023-01-20T09:10:40.617Z,17.25
2023-01-20T09:13:07.402Z,13.25
2023-01-20T09:15:35.649Z,11.00
2023-01-20T09:18:02.465Z,16.00
2023-01-20T09:20:29.244Z,47.67
2023-01-20T09:22:56.448Z,39.33
2023-01-20T09:25:23.105Z,9.00
2023-01-20T09:27:49.909Z,14.00
2023-01-20T09:30:17.111Z,27.00
2023-01-20T09:32:45.204Z,12.75
2023-01-20T09:35:11.914Z,42.50
2023-01-20T09:37:38.772Z,15.50
2023-01-20T09:40:09.504Z,7.75
2023-01-20T09:42:52.703Z,15.25
2023-01-20T09:45:27.878Z,18.00
2023-01-20T09:48:05.052Z,27.50
2023-01-20T09:50:45.741Z,21.50
2023-01-20T09:53:27.853Z,23.50
2023-01-20T09:55:57.723Z,12.25
2023-01-20T09:58:34.850Z,19.25
2023-01-20T10:01:10.769Z,14.50
2023-01-20T10:03:46.137Z,16.25
2023-01-20T10:06:20.496Z,82.00
2023-01-20T10:09:05.004Z,59.75
2023-01-20T10:11:37.707Z,28.00
2023-01-20T10:14:13.571Z,56.00
2023-01-20T10:16:45.521Z,103.50
2023-01-20T10:19:21.348Z,39.00
2023-01-20T10:21:53.499Z,81.00
2023-01-20T10:24:28.389Z,52.25
2023-01-20T10:27:01.476Z,20.75
2023-01-20T10:29:34.295Z,8.50
2023-01-20T10:32:02.924Z,9.00
2023-01-20T10:34:41.885Z,8.00
2023-01-20T10:37:11.098Z,7.00
2023-01-20T10:39:46.783Z,8.25
2023-01-20T10:42:15.156Z,6.50
2023-01-20T10:44:42.299Z,5.00
2023-01-20T10:47:17.682Z,5.00
2023-01-20T10:50:14.333Z,7.50
2023-01-20T10:52:52.163Z,8.25
2023-01-20T10:55:29.620Z,4.00
2023-01-20T10:58:01.918Z,6.00
2023-01-20T11:00:31.541Z,6.25
2023-01-20T11:03:00.981Z,7.00
2023-01-20T11:05:31.178Z,7.50
2023-01-20T11:08:00.427Z,5.00
2023-01-20T11:10:29.841Z,7.00
2023-01-20T11:12:59.948Z,6.75
2023-01-20T11:15:29.705Z,6.00
2023-01-20T11:18:29.897Z,5.25
2023-01-20T11:21:01.434Z,8.50
2023-01-20T11:23:36.613Z,7.75
2023-01-20T11:26:06.606Z,7.00
2023-01-20T11:28:43.848Z,8.75
2023-01-20T11:31:11.399Z,4.50
2023-01-20T11:33:38.240Z,8.00
2023-01-20T11:36:16.612Z,8.25
2023-01-20T11:38:45.929Z,6.25
2023-01-20T11:41:19.679Z,8.00
2023-01-20T11:43:47.118Z,6.50
2023-01-20T11:46:22.768Z,28.75
2023-01-20T11:48:50.172Z,8.00
2023-01-20T11:51:22.297Z,4.00
2023-01-20T11:53:49.148Z,78.25
2023-01-20T11:56:20.112Z,105.50
2023-01-20T11:58:52.969Z,26.00
2023-01-20T12:01:23.376Z,2.00
2023-01-20T12:04:21.697Z,3.00
2023-01-20T12:06:55.976Z,4.00
2023-01-20T12:09:30.339Z,3.75
2023-01-20T12:12:02.242Z,5.00
2023-01-20T12:14:34.144Z,5.50
2023-01-20T12:17:12.017Z,5.00
2023-01-20T12:19:50.458Z,4.25
2023-01-20T12:22:24.570Z,7.75
2023-01-20T12:24:58.452Z,0.00
2023-01-20T12:27:28.222Z,5.00
2023-01-20T12:29:59.486Z,6.67
2023-01-20T12:32:26.212Z,5.33
2023-01-20T12:34:52.902Z,6.00
2023-01-20T12:37:28.341Z,7.00
2023-01-20T12:40:20.302Z,6.00
2023-01-20T12:43:03.637Z,8.33
2023-01-20T12:45:43.518Z,6.33
2023-01-20T12:48:25.776Z,5.00
2023-01-20T12:51:03.893Z,5.75
2023-01-20T12:53:48.859Z,5.00
2023-01-20T12:56:25.384Z,4.25
2023-01-20T12:59:01.043Z,5.25
2023-01-20T13:01:58.223Z,4.33
2023-01-20T13:04:57.456Z,5.00
2023-01-20T13:07:46.856Z,3.33
2023-01-20T13:10:26.310Z,5.67
2023-01-20T13:13:00.282Z,4.67
2023-01-20T13:15:30.087Z,2.67
2023-01-20T13:18:12.011Z,5.00
2023-01-20T13:20:40.510Z,1.00
2023-01-20T13:23:11.156Z,3.00
2023-01-20T13:25:41.123Z,5.67
2023-01-20T13:28:16.006Z,4.00
2023-01-20T13:30:45.316Z,1.67
2023-01-20T13:33:17.937Z,1.33
2023-01-20T13:35:47.781Z,3.00
2023-01-20T13:38:23.214Z,3.00
2023-01-20T13:40:56.731Z,3.00
2023-01-20T13:43:50.262Z,3.67
2023-01-20T13:46:48.357Z,4.00
2023-01-20T13:49:47.531Z,2.33
2023-01-20T13:52:14.401Z,3.00
2023-01-20T13:54:47.904Z,5.00
2023-01-20T13:57:46.226Z,5.33
2023-01-20T14:00:18.334Z,7.00
2023-01-20T14:02:49.188Z,8.67
2023-01-20T14:05:24.861Z,7.00
2023-01-20T14:07:51.956Z,3.00
2023-01-20T14:10:19.040Z,3.00
2023-01-20T14:12:47.118Z,1.33
2023-01-20T14:15:34.050Z,2.67
2023-01-20T14:18:01.120Z,3.00
2023-01-20T14:20:28.995Z,2.50
2023-01-20T14:23:14.838Z,4.25
2023-01-20T14:25:41.682Z,2.00
2023-01-20T14:28:19.763Z,3.00
2023-01-20T14:30:47.925Z,3.00
2023-01-20T14:33:16.493Z,4.00
2023-01-20T14:35:43.357Z,4.00
2023-01-20T14:38:17.265Z,5.00
2023-01-20T14:40:44.280Z,4.25
2023-01-20T14:43:18.695Z,4.00
2023-01-20T14:45:49.598Z,2.00
2023-01-20T14:48:32.661Z,3.25
2023-01-20T14:51:00.589Z,3.25
2023-01-20T14:53:27.318Z,5.25
2023-01-20T14:56:01.664Z,5.75
2023-01-20T14:58:29.012Z,3.25
2023-01-20T15:01:00.609Z,3.00
2023-01-20T15:03:29.453Z,2.00
2023-01-20T15:05:59.357Z,2.25
2023-01-20T15:08:27.209Z,5.25
2023-01-20T15:11:26.853Z,4.00
2023-01-20T15:14:10.414Z,5.00
2023-01-20T15:16:50.518Z,3.25
2023-01-20T15:19:28.339Z,5.00
2023-01-20T15:21:56.580Z,3.75
2023-01-20T15:24:24.527Z,2.75
2023-01-20T15:26:53.110Z,6.00
2023-01-20T15:29:21.109Z,4.25
2023-01-20T15:31:49.571Z,5.50
2023-01-20T15:34:16.247Z,7.00
2023-01-20T15:36:44.391Z,4.75
2023-01-20T15:39:11.778Z,7.75
2023-01-20T15:41:38.553Z,45.25
2023-01-20T15:44:05.918Z,57.25
2023-01-20T15:46:33.065Z,33.00
2023-01-20T15:49:01.646Z,40.75
2023-01-20T15:51:28.434Z,8.00
2023-01-20T15:53:55.122Z,4.00
2023-01-20T15:56:25.467Z,7.50
2023-01-20T15:58:52.687Z,4.00
2023-01-20T16:01:20.765Z,5.50
2023-01-20T16:03:47.465Z,7.00
2023-01-20T16:06:17.707Z,10.00
2023-01-20T16:08:46.572Z,9.00
2023-01-20T16:11:13.638Z,7.50
2023-01-20T16:13:40.608Z,9.25
2023-01-20T16:16:12.255Z,10.25
2023-01-20T16:18:39.020Z,9.50
2023-01-20T16:21:06.156Z,6.00
2023-01-20T16:23:34.241Z,7.50
2023-01-20T16:26:00.958Z,7.75
2023-01-20T16:28:27.903Z,10.75
2023-01-20T16:30:54.864Z,7.75
2023-01-20T16:33:22.950Z,11.25
2023-01-20T16:35:51.016Z,16.00
2023-01-20T16:38:19.424Z,15.75
2023-01-20T16:40:50.131Z,17.50
2023-01-20T16:43:17.440Z,35.00
2023-01-20T16:45:44.693Z,36.75
2023-01-20T16:48:11.505Z,29.25
2023-01-20T16:50:38.644Z,31.25
2023-01-20T16:53:05.326Z,29.50
2023-01-20T16:55:32.007Z,29.50
2023-01-20T16:58:00.119Z,28.00
2023-01-20T17:00:26.809Z,30.50
2023-01-20T17:02:53.633Z,29.00
2023-01-20T17:05:21.463Z,29.50
2023-01-20T17:07:48.758Z,24.75
2023-01-20T17:10:15.833Z,21.50
2023-01-20T17:12:42.706Z,16.00
2023-01-20T17:15:12.005Z,15.00
2023-01-20T17:17:38.734Z,13.00
2023-01-20T17:20:06.860Z,10.50
2023-01-20T17:22:33.525Z,12.75
2023-01-20T17:25:00.269Z,22.50
2023-01-20T17:27:26.976Z,26.50
2023-01-20T17:29:53.714Z,37.67
2023-01-20T17:32:21.805Z,38.00
2023-01-20T17:34:48.604Z,37.00
2023-01-20T17:37:15.331Z,57.00
2023-01-20T17:39:41.993Z,65.67
2023-01-20T17:42:08.702Z,64.33
2023-01-20T17:44:35.341Z,80.00
2023-01-20T17:47:02.037Z,99.75
2023-01-20T17:49:30.123Z,105.50
2023-01-20T17:51:56.960Z,99.25
2023-01-20T17:54:23.658Z,82.33
2023-01-20T17:56:50.340Z,62.33
2023-01-20T17:59:17.974Z,40.67
2023-01-20T18:01:44.644Z,19.00
2023-01-20T18:04:11.368Z,75.33
2023-01-20T18:06:39.467Z,66.67
2023-01-20T18:09:07.412Z,71.00
2023-01-20T18:11:36.009Z,64.67
2023-01-20T18:14:03.992Z,67.00
2023-01-20T18:16:33.105Z,78.67
2023-01-20T18:19:00.366Z,62.67
2023-01-20T18:21:28.793Z,64.67
2023-01-20T18:23:57.845Z,68.67
2023-01-20T18:26:26.537Z,66.33
2023-01-20T18:28:54.468Z,68.67
2023-01-20T18:31:23.537Z,65.67
2023-01-20T18:33:51.776Z,65.33
2023-01-20T18:36:20.386Z,72.67
2023-01-20T18:38:49.904Z,67.67
2023-01-20T18:41:18.672Z,77.00
2023-01-20T18:43:45.440Z,88.00
2023-01-20T18:46:12.236Z,87.33
2023-01-20T18:48:39.821Z,106.00
2023-01-20T18:51:07.946Z,86.67
2023-01-20T18:53:34.656Z,96.00
2023-01-20T18:56:02.272Z,85.00
2023-01-20T18:58:30.378Z,68.33
2023-01-20T19:01:03.294Z,71.00
2023-01-20T19:03:30.069Z,67.00
2023-01-20T19:06:03.083Z,67.67
2023-01-20T19:08:29.763Z,87.67
2023-01-20T19:11:00.346Z,88.00
2023-01-20T19:13:27.096Z,78.33
2023-01-20T19:15:55.723Z,87.00
2023-01-20T19:18:22.832Z,81.33
2023-01-20T19:20:49.601Z,68.00
2023-01-20T19:23:17.019Z,107.00
2023-01-20T19:25:43.757Z,101.25
2023-01-20T19:28:10.731Z,136.25
2023-01-20T19:30:37.772Z,176.75
2023-01-20T19:33:05.918Z,221.25
2023-01-20T19:35:33.805Z,164.50
2023-01-20T19:38:00.553Z,183.00
2023-01-20T19:40:27.251Z,247.50
2023-01-20T19:42:54.114Z,216.00
2023-01-20T19:45:21.037Z,194.25
2023-01-20T19:47:47.751Z,215.50
2023-01-20T19:50:16.565Z,199.00
2023-01-20T19:52:43.344Z,199.00
2023-01-20T19:55:10.017Z,198.00
2023-01-20T19:57:37.003Z,156.75
2023-01-20T20:00:04.387Z,121.50
2023-01-20T20:02:31.033Z,178.75
2023-01-20T20:04:57.744Z,134.75
2023-01-20T20:07:25.857Z,113.75
2023-01-20T20:09:52.584Z,108.25
2023-01-20T20:12:19.315Z,102.00
2023-01-20T20:14:46.137Z,116.50
2023-01-20T20:17:12.780Z,116.25
2023-01-20T20:19:39.583Z,112.50
2023-01-20T20:22:06.280Z,108.50
2023-01-20T20:24:34.427Z,114.25
2023-01-20T20:27:01.081Z,111.00
2023-01-20T20:29:28.034Z,119.25
2023-01-20T20:31:54.777Z,110.75
2023-01-20T20:34:21.631Z,106.75
2023-01-20T20:36:48.405Z,120.75
2023-01-20T20:39:17.548Z,90.50
2023-01-20T20:41:46.042Z,89.00
2023-01-20T20:44:12.864Z,95.00
2023-01-20T20:46:39.707Z,91.25
2023-01-20T20:49:06.489Z,85.25
2023-01-20T20:51:34.288Z,79.50
2023-01-20T20:54:02.727Z,80.50
2023-01-20T20:56:30.620Z,89.00
2023-01-20T20:59:02.473Z,89.75
2023-01-20T21:01:31.257Z,108.25
2023-01-20T21:03:58.384Z,92.00
2023-01-20T21:06:25.389Z,92.25
2023-01-20T21:08:52.507Z,99.50
2023-01-20T21:11:19.267Z,98.50
2023-01-20T21:13:46.010Z,108.50
2023-01-20T21:16:16.761Z,111.25
2023-01-20T21:18:43.506Z,107.50
2023-01-20T21:21:12.846Z,110.75
2023-01-20T21:23:40.059Z,128.00
2023-01-20T21:26:10.066Z,115.50
2023-01-20T21:28:36.851Z,105.25
2023-01-20T21:31:06.880Z,106.25
2023-01-20T21:33:36.825Z,111.50
2023-01-20T21:36:06.265Z,104.75
2023-01-20T21:38:32.996Z,126.25
2023-01-20T21:41:04.140Z,120.25
2023-01-20T21:43:31.512Z,111.00
2023-01-20T21:45:58.286Z,102.75
2023-01-20T21:48:25.050Z,117.50
2023-01-20T21:50:53.194Z,119.00
2023-01-20T21:53:19.897Z,112.00
2023-01-20T21:55:46.570Z,139.75
2023-01-20T21:58:13.379Z,118.25
2023-01-20T22:00:40.209Z,106.50
2023-01-20T22:03:06.930Z,100.00
2023-01-20T22:05:33.635Z,113.75
2023-01-20T22:08:01.741Z,118.00
2023-01-20T22:10:28.410Z,106.00
2023-01-20T22:12:55.250Z,98.50
2023-01-20T22:15:21.967Z,115.25
2023-01-20T22:17:48.798Z,117.00
2023-01-20T22:20:16.216Z,110.25
2023-01-20T22:22:43.088Z,96.00
2023-01-20T22:25:11.259Z,85.50
2023-01-20T22:27:37.943Z,87.00
2023-01-20T22:30:05.536Z,87.33
2023-01-20T22:32:32.271Z,78.00
2023-01-20T22:34:59.004Z,79.33
2023-01-20T22:37:25.697Z,78.00
2023-01-20T22:39:52.390Z,83.75
2023-01-20T22:42:20.632Z,88.67
2023-01-20T22:44:47.309Z,90.67
2023-01-20T22:47:13.988Z,91.33
2023-01-20T22:49:40.668Z,88.33
2023-01-20T22:52:07.370Z,80.67
2023-01-20T22:54:34.074Z,89.00
2023-01-20T22:57:00.811Z,100.50
2023-01-20T22:59:29.060Z,103.00
2023-01-20T23:01:55.856Z,93.75
2023-01-20T23:04:23.290Z,90.50
2023-01-20T23:06:49.997Z,93.00
2023-01-20T23:09:16.656Z,95.00
2023-01-20T23:11:43.383Z,93.25
2023-01-20T23:14:10.243Z,95.75
2023-01-20T23:16:38.590Z,94.67
2023-01-20T23:19:05.897Z,89.50
2023-01-20T23:21:32.693Z,100.25
2023-01-20T23:23:59.463Z,94.00
2023-01-20T23:26:28.160Z,99.75
2023-01-20T23:28:56.050Z,98.75
2023-01-20T23:31:24.281Z,92.50
2023-01-20T23:33:53.959Z,81.50
2023-01-20T23:36:21.829Z,101.50
2023-01-20T23:38:48.731Z,104.75
2023-01-20T23:41:16.242Z,101.50
2023-01-20T23:43:43.264Z,92.75
2023-01-20T23:46:10.483Z,107.75
2023-01-20T23:48:38.104Z,90.00
2023-01-20T23:51:07.040Z,105.00
2023-01-20T23:53:37.587Z,90.00
2023-01-20T23:56:07.051Z,101.50
2023-01-20T23:58:33.798Z,97.75
